Time;durP1;ratioP1;P1;durP2;ratioP2;P2;SDS_P1;SDS_P2;PMS_P1;PMS_P2;Temp;Humidity;BMP_temperature;BMP_pressure;BME280_temperature;BME280_humidity;BME280_pressure;Samples;Min_cycle;Max_cycle;Signal;HPM_P1;HPM_P2
2021/01/06 00:01:23;;;;;;;9.05;5.70;;;;;;;;;;5029772;28;20029;-70
2021/01/06 00:03:49;;;;;;;10.27;4.95;;;;;;;;;;5030969;28;20053;-69
2021/01/06 00:06:17;;;;;;;11.55;5.63;;;;;;;;;;5030967;28;20454;-72
2021/01/06 00:08:43;;;;;;;9.32;5.05;;;;;;;;;;5029463;28;20377;-74
2021/01/06 00:11:09;;;;;;;14.93;6.00;;;;;;;;;;5030827;28;20156;-73
2021/01/06 00:13:35;;;;;;;9.07;5.57;;;;;;;;;;5031766;28;20520;-71
2021/01/06 00:16:02;;;;;;;8.15;5.15;;;;;;;;;;5034393;28;20481;-71
2021/01/06 00:18:28;;;;;;;9.77;6.10;;;;;;;;;;5032776;28;20034;-69
2021/01/06 00:20:55;;;;;;;10.93;6.53;;;;;;;;;;5040077;28;20021;-69
2021/01/06 00:23:21;;;;;;;9.60;5.63;;;;;;;;;;5054109;28;20064;-71
2021/01/06 00:25:47;;;;;;;14.65;5.82;;;;;;;;;;5052875;28;20021;-75
2021/01/06 00:28:14;;;;;;;9.18;6.05;;;;;;;;;;5054140;28;20025;-76
2021/01/06 00:30:45;;;;;;;10.13;6.13;;;;;;;;;;5053940;28;20017;-76
2021/01/06 00:33:17;;;;;;;13.25;6.78;;;;;;;;;;5053801;28;20017;-76
2021/01/06 00:35:43;;;;;;;14.50;5.70;;;;;;;;;;5053411;28;20473;-74
2021/01/06 00:38:09;;;;;;;11.00;5.97;;;;;;;;;;5052869;28;20045;-74
2021/01/06 00:40:36;;;;;;;15.02;6.55;;;;;;;;;;5051871;28;20542;-78
2021/01/06 00:43:04;;;;;;;11.13;6.60;;;;;;;;;;5051843;28;20025;-72
2021/01/06 00:45:30;;;;;;;11.10;6.55;;;;;;;;;;5053844;28;20078;-72
2021/01/06 00:47:57;;;;;;;13.52;6.38;;;;;;;;;;5053667;28;20102;-70
2021/01/06 00:50:24;;;;;;;16.35;7.78;;;;;;;;;;5052397;28;20044;-72
2021/01/06 00:52:50;;;;;;;15.30;6.70;;;;;;;;;;5052290;28;20051;-69
2021/01/06 00:55:17;;;;;;;11.73;6.60;;;;;;;;;;5053585;28;20427;-72
2021/01/06 00:57:43;;;;;;;12.25;7.20;;;;;;;;;;5053370;28;20071;-73
2021/01/06 01:00:10;;;;;;;15.30;7.47;;;;;;;;;;5053266;28;20029;-73
2021/01/06 01:02:36;;;;;;;12.50;7.32;;;;;;;;;;5053063;28;20026;-72
2021/01/06 01:05:03;;;;;;;15.27;8.02;;;;;;;;;;5053186;28;20025;-72
2021/01/06 01:07:29;;;;;;;11.82;6.90;;;;;;;;;;5052076;28;20518;-72
2021/01/06 01:09:55;;;;;;;13.45;6.90;;;;;;;;;;5053397;28;20170;-74
2021/01/06 01:12:22;;;;;;;10.70;7.15;;;;;;;;;;5042026;28;20421;-71
2021/01/06 01:14:51;;;;;;;12.68;7.35;;;;;;;;;;5031944;28;20037;-69
2021/01/06 01:17:18;;;;;;;12.77;7.35;;;;;;;;;;5033784;28;20057;-73
2021/01/06 01:19:44;;;;;;;11.75;7.82;;;;;;;;;;5033249;28;20036;-72
2021/01/06 01:22:10;;;;;;;12.27;7.85;;;;;;;;;;5065010;28;20556;-74
2021/01/06 01:24:36;;;;;;;12.70;8.40;;;;;;;;;;5064517;28;20032;-72
2021/01/06 01:27:03;;;;;;;12.13;7.68;;;;;;;;;;5032967;28;20056;-71
2021/01/06 01:29:29;;;;;;;13.77;7.82;;;;;;;;;;5032950;28;20075;-73
2021/01/06 01:31:55;;;;;;;11.95;8.02;;;;;;;;;;5078458;28;20013;-73
2021/01/06 01:34:21;;;;;;;14.88;8.05;;;;;;;;;;5052829;28;20029;-71
2021/01/06 01:36:50;;;;;;;19.05;8.27;;;;;;;;;;5052517;28;20052;-73
2021/01/06 01:39:17;;;;;;;12.38;8.00;;;;;;;;;;5051375;28;20119;-73
2021/01/06 01:41:44;;;;;;;19.85;9.13;;;;;;;;;;5052723;28;20025;-73
2021/01/06 01:44:16;;;;;;;15.25;8.35;;;;;;;;;;5052125;28;20029;-72
2021/01/06 01:46:50;;;;;;;17.27;8.77;;;;;;;;;;5051243;28;20066;-72
2021/01/06 01:49:17;;;;;;;18.15;8.90;;;;;;;;;;5051222;28;20021;-75
2021/01/06 01:51:54;;;;;;;22.80;9.35;;;;;;;;;;5052594;28;20029;-73
2021/01/06 01:54:20;;;;;;;16.70;9.50;;;;;;;;;;5050512;28;20021;-73
2021/01/06 01:57:00;;;;;;;18.38;9.43;;;;;;;;;;5051605;28;20028;-77
2021/01/06 01:59:41;;;;;;;19.33;9.93;;;;;;;;;;5051608;28;20037;-72
2021/01/06 02:02:10;;;;;;;17.38;8.65;;;;;;;;;;5050954;28;20028;-72
2021/01/06 02:04:56;;;;;;;16.27;9.52;;;;;;;;;;5052281;28;20430;-73
2021/01/06 02:07:25;;;;;;;16.38;8.65;;;;;;;;;;5050995;28;20024;-76
2021/01/06 02:09:57;;;;;;;16.50;8.90;;;;;;;;;;5050925;28;20384;-76
2021/01/06 02:12:43;;;;;;;18.45;8.90;;;;;;;;;;5041927;28;20025;-72
2021/01/06 02:15:14;;;;;;;16.52;8.95;;;;;;;;;;5030665;28;20029;-73
2021/01/06 02:17:40;;;;;;;15.73;8.98;;;;;;;;;;5032092;28;20076;-73
2021/01/06 02:20:20;;;;;;;21.70;8.43;;;;;;;;;;5032232;28;20025;-74
2021/01/06 02:22:47;;;;;;;14.93;8.27;;;;;;;;;;5030601;28;20025;-76
2021/01/06 02:25:14;;;;;;;15.98;7.93;;;;;;;;;;5032012;28;20029;-73
2021/01/06 02:27:40;;;;;;;14.23;8.27;;;;;;;;;;5051287;28;20033;-73
2021/01/06 02:30:07;;;;;;;14.68;8.15;;;;;;;;;;5051834;28;20100;-73
2021/01/06 02:32:33;;;;;;;14.70;7.85;;;;;;;;;;5051909;28;20029;-73
2021/01/06 02:34:59;;;;;;;16.00;7.97;;;;;;;;;;5051553;28;20025;-74
2021/01/06 02:37:27;;;;;;;13.30;7.93;;;;;;;;;;5048527;28;20051;-75
2021/01/06 02:39:53;;;;;;;14.43;8.65;;;;;;;;;;5051389;28;20029;-73
2021/01/06 02:42:20;;;;;;;13.73;8.57;;;;;;;;;;5051491;28;20020;-75
2021/01/06 02:44:46;;;;;;;15.40;8.13;;;;;;;;;;5051719;28;20021;-74
2021/01/06 02:47:13;;;;;;;13.25;8.02;;;;;;;;;;5050387;28;20021;-76
2021/01/06 02:49:39;;;;;;;16.20;7.55;;;;;;;;;;5050411;28;20033;-73
2021/01/06 02:52:16;;;;;;;13.02;8.05;;;;;;;;;;5050297;28;20027;-72
2021/01/06 02:54:44;;;;;;;12.57;7.65;;;;;;;;;;5051618;28;20021;-75
2021/01/06 02:57:11;;;;;;;15.65;8.50;;;;;;;;;;5051492;28;20021;-73
2021/01/06 02:59:48;;;;;;;14.77;8.93;;;;;;;;;;5050281;28;20480;-73
2021/01/06 03:02:15;;;;;;;15.45;8.00;;;;;;;;;;5050184;28;20115;-73
2021/01/06 03:04:44;;;;;;;16.05;6.70;;;;;;;;;;5051678;28;20044;-73
2021/01/06 03:07:11;;;;;;;15.43;8.25;;;;;;;;;;5050145;28;20516;-73
2021/01/06 03:09:42;;;;;;;14.43;8.38;;;;;;;;;;5051329;28;20017;-73
2021/01/06 03:12:13;;;;;;;14.20;7.78;;;;;;;;;;5049934;28;20028;-73
2021/01/06 03:14:40;;;;;;;12.48;7.90;;;;;;;;;;5051314;28;20017;-73
2021/01/06 03:17:07;;;;;;;12.05;7.53;;;;;;;;;;5049952;28;20032;-73
2021/01/06 03:19:35;;;;;;;13.63;8.18;;;;;;;;;;5050042;28;20044;-72
2021/01/06 03:22:02;;;;;;;15.43;8.48;;;;;;;;;;5050023;28;20126;-73
2021/01/06 03:24:30;;;;;;;12.90;7.85;;;;;;;;;;5051493;28;20017;-75
2021/01/06 03:26:58;;;;;;;14.15;8.30;;;;;;;;;;5051445;28;20045;-74
2021/01/06 03:29:26;;;;;;;14.00;7.53;;;;;;;;;;5050167;28;20029;-73
2021/01/06 03:31:52;;;;;;;12.82;7.22;;;;;;;;;;5051491;28;20380;-74
2021/01/06 03:34:20;;;;;;;15.68;7.47;;;;;;;;;;5049869;28;20013;-73
2021/01/06 03:37:01;;;;;;;12.93;8.10;;;;;;;;;;5051025;28;20076;-73
2021/01/06 03:39:31;;;;;;;12.30;7.45;;;;;;;;;;5033719;28;20365;-73
2021/01/06 03:41:59;;;;;;;12.85;7.97;;;;;;;;;;5051145;28;20018;-75
2021/01/06 03:44:26;;;;;;;12.82;6.80;;;;;;;;;;5049839;28;20111;-73
2021/01/06 03:46:56;;;;;;;14.07;7.47;;;;;;;;;;5052096;28;20044;-73
2021/01/06 03:49:45;;;;;;;10.00;6.68;;;;;;;;;;5054922;28;20017;-73
2021/01/06 03:52:19;;;;;;;13.35;7.70;;;;;;;;;;5054857;28;20380;-73
2021/01/06 03:55:04;;;;;;;12.90;8.13;;;;;;;;;;5054821;28;20443;-75
2021/01/06 03:57:31;;;;;;;12.82;7.57;;;;;;;;;;5054617;28;20027;-74
2021/01/06 03:59:58;;;;;;;14.07;7.80;;;;;;;;;;5053407;28;20033;-74
2021/01/06 04:02:45;;;;;;;13.02;7.00;;;;;;;;;;5053366;28;20107;-74
2021/01/06 04:05:16;;;;;;;13.73;7.65;;;;;;;;;;5054668;28;20056;-74
2021/01/06 04:07:46;;;;;;;12.75;7.82;;;;;;;;;;5054672;28;20040;-73
2021/01/06 04:10:14;;;;;;;12.40;7.30;;;;;;;;;;5054501;28;20025;-73
2021/01/06 04:12:40;;;;;;;10.63;6.80;;;;;;;;;;5054464;28;20448;-73
2021/01/06 04:15:07;;;;;;;11.50;7.35;;;;;;;;;;5054380;28;20032;-73
2021/01/06 04:17:35;;;;;;;15.32;7.32;;;;;;;;;;5053138;28;20029;-75
2021/01/06 04:20:09;;;;;;;10.45;6.70;;;;;;;;;;5054489;28;20046;-72
2021/01/06 04:22:38;;;;;;;12.30;7.75;;;;;;;;;;5054268;28;20029;-73
2021/01/06 04:25:08;;;;;;;13.10;8.18;;;;;;;;;;5053028;28;20119;-74
2021/01/06 04:27:34;;;;;;;14.52;8.35;;;;;;;;;;5052694;28;20114;-73
2021/01/06 04:30:00;;;;;;;12.50;7.85;;;;;;;;;;5054275;28;20107;-72
2021/01/06 04:32:30;;;;;;;12.88;7.75;;;;;;;;;;5054204;28;20025;-72
2021/01/06 04:34:56;;;;;;;19.13;7.38;;;;;;;;;;5052905;28;20123;-73
2021/01/06 04:37:22;;;;;;;12.85;7.30;;;;;;;;;;5052562;28;20059;-72
2021/01/06 04:39:48;;;;;;;11.90;7.25;;;;;;;;;;5054157;28;20025;-75
2021/01/06 04:42:14;;;;;;;12.98;7.50;;;;;;;;;;5053989;28;20021;-73
2021/01/06 04:44:44;;;;;;;12.15;6.93;;;;;;;;;;5047238;28;20040;-72
2021/01/06 04:47:10;;;;;;;13.50;7.18;;;;;;;;;;5033901;28;20021;-73
2021/01/06 04:49:36;;;;;;;11.85;7.10;;;;;;;;;;5034038;28;20029;-74
2021/01/06 04:52:02;;;;;;;13.63;8.10;;;;;;;;;;5032504;28;20208;-72
2021/01/06 04:54:37;;;;;;;12.02;7.43;;;;;;;;;;5033614;28;20028;-73
2021/01/06 04:57:08;;;;;;;14.18;7.60;;;;;;;;;;5033663;28;20366;-73
2021/01/06 05:00:04;;;;;;;11.68;7.35;;;;;;;;;;5031578;28;20029;-74
2021/01/06 05:02:48;;;;;;;11.40;7.07;;;;;;;;;;5031176;28;20049;-72
2021/01/06 05:05:30;;;;;;;14.52;8.35;;;;;;;;;;5033636;28;20051;-75
2021/01/06 05:08:14;;;;;;;15.32;8.60;;;;;;;;;;5032287;28;20017;-72
2021/01/06 05:10:45;;;;;;;11.38;7.22;;;;;;;;;;5033689;28;20086;-74
2021/01/06 05:13:16;;;;;;;10.73;6.78;;;;;;;;;;5032033;28;20036;-74
2021/01/06 05:15:51;;;;;;;16.45;8.60;;;;;;;;;;5032759;28;20030;-73
2021/01/06 05:18:18;;;;;;;13.52;8.13;;;;;;;;;;5032461;28;20091;-73
2021/01/06 05:20:44;;;;;;;11.10;6.68;;;;;;;;;;5031446;28;20036;-73
2021/01/06 05:23:21;;;;;;;13.35;7.05;;;;;;;;;;5031921;28;20018;-72
2021/01/06 05:25:48;;;;;;;13.18;7.55;;;;;;;;;;5033391;28;20025;-75
2021/01/06 05:28:18;;;;;;;11.55;7.07;;;;;;;;;;5033257;28;20100;-73
2021/01/06 05:30:45;;;;;;;12.90;6.53;;;;;;;;;;5033168;28;20025;-76
2021/01/06 05:33:12;;;;;;;10.77;6.35;;;;;;;;;;5031770;28;20472;-73
2021/01/06 05:35:44;;;;;;;12.43;7.75;;;;;;;;;;5031729;28;20039;-74
2021/01/06 05:38:10;;;;;;;11.50;7.03;;;;;;;;;;5031376;28;20046;-72
2021/01/06 05:40:37;;;;;;;14.45;7.80;;;;;;;;;;5031497;28;20079;-73
2021/01/06 05:43:05;;;;;;;10.82;6.22;;;;;;;;;;5031497;28;20026;-75
2021/01/06 05:45:45;;;;;;;13.20;7.63;;;;;;;;;;5031565;28;20010;-76
2021/01/06 05:48:19;;;;;;;13.55;7.38;;;;;;;;;;5031400;28;20451;-74
2021/01/06 05:50:53;;;;;;;14.55;8.65;;;;;;;;;;5032577;28;20017;-73
2021/01/06 05:53:31;;;;;;;13.85;7.90;;;;;;;;;;5032464;28;20502;-73
2021/01/06 05:55:57;;;;;;;12.05;7.05;;;;;;;;;;5031998;28;20022;-73
2021/01/06 05:58:23;;;;;;;13.20;7.50;;;;;;;;;;5030356;28;20030;-75
2021/01/06 06:00:53;;;;;;;14.82;7.60;;;;;;;;;;5030425;28;20377;-74
2021/01/06 06:03:37;;;;;;;16.10;8.20;;;;;;;;;;5031792;28;20389;-74
2021/01/06 06:06:04;;;;;;;17.95;8.88;;;;;;;;;;5031032;28;20025;-73
2021/01/06 06:08:30;;;;;;;16.00;8.23;;;;;;;;;;5030951;28;20025;-74
2021/01/06 06:10:56;;;;;;;16.08;8.27;;;;;;;;;;5030993;28;20021;-73
2021/01/06 06:13:41;;;;;;;14.80;7.65;;;;;;;;;;5032304;28;20362;-73
2021/01/06 06:16:07;;;;;;;13.73;7.80;;;;;;;;;;5030982;28;20163;-76
2021/01/06 06:18:49;;;;;;;16.00;8.38;;;;;;;;;;5030700;28;20132;-74
2021/01/06 06:21:24;;;;;;;15.20;8.80;;;;;;;;;;5047317;28;20021;-74
2021/01/06 06:24:09;;;;;;;16.15;9.25;;;;;;;;;;5051442;28;20268;-74
2021/01/06 06:26:35;;;;;;;15.93;8.27;;;;;;;;;;5051949;28;20087;-74
2021/01/06 06:29:04;;;;;;;15.40;7.93;;;;;;;;;;5052063;28;20104;-73
2021/01/06 06:31:33;;;;;;;15.55;8.90;;;;;;;;;;5051733;28;20025;-73
2021/01/06 06:34:00;;;;;;;16.75;8.10;;;;;;;;;;5055153;28;20107;-74
2021/01/06 06:36:31;;;;;;;15.02;7.68;;;;;;;;;;5053620;28;20431;-75
2021/01/06 06:39:02;;;;;;;13.88;7.50;;;;;;;;;;5051782;28;20412;-73
2021/01/06 06:41:34;;;;;;;14.52;7.43;;;;;;;;;;5051565;28;20033;-74
2021/01/06 06:44:18;;;;;;;12.45;6.82;;;;;;;;;;5050330;28;20052;-73
2021/01/06 06:46:44;;;;;;;14.20;6.80;;;;;;;;;;5049585;28;20369;-74
2021/01/06 06:49:13;;;;;;;14.50;6.88;;;;;;;;;;5050355;28;20032;-73
2021/01/06 06:51:54;;;;;;;10.75;6.80;;;;;;;;;;5050369;28;20476;-75
2021/01/06 06:54:46;;;;;;;13.27;7.32;;;;;;;;;;5051685;28;20380;-73
2021/01/06 06:57:22;;;;;;;12.33;6.90;;;;;;;;;;5043034;28;20090;-73
2021/01/06 06:59:57;;;;;;;12.60;6.93;;;;;;;;;;5051152;28;20283;-74
2021/01/06 07:02:24;;;;;;;12.45;6.88;;;;;;;;;;5051486;28;20025;-74
2021/01/06 07:04:55;;;;;;;11.88;6.32;;;;;;;;;;5051524;28;20396;-73
2021/01/06 07:07:40;;;;;;;13.13;6.30;;;;;;;;;;5050200;28;20017;-73
2021/01/06 07:10:07;;;;;;;11.23;6.55;;;;;;;;;;5051393;28;20107;-74
2021/01/06 07:12:38;;;;;;;12.73;6.65;;;;;;;;;;5051201;28;20025;-73
2021/01/06 07:15:04;;;;;;;11.25;6.32;;;;;;;;;;5051261;28;20029;-74
2021/01/06 07:17:33;;;;;;;10.68;6.03;;;;;;;;;;5051166;28;20483;-72
2021/01/06 07:20:01;;;;;;;12.48;6.88;;;;;;;;;;5051297;28;20057;-73
2021/01/06 07:22:40;;;;;;;10.82;6.05;;;;;;;;;;5051757;28;20357;-74
2021/01/06 07:25:20;;;;;;;12.27;7.00;;;;;;;;;;5055196;28;20078;-74
2021/01/06 07:27:51;;;;;;;9.95;6.20;;;;;;;;;;5055320;28;20476;-72
2021/01/06 07:30:35;;;;;;;11.25;6.75;;;;;;;;;;5054016;28;20023;-74
2021/01/06 07:33:10;;;;;;;12.30;7.18;;;;;;;;;;5054936;28;20025;-74
2021/01/06 07:35:38;;;;;;;12.25;7.22;;;;;;;;;;5053759;28;20025;-74
2021/01/06 07:38:06;;;;;;;12.45;6.97;;;;;;;;;;5053414;28;20519;-74
2021/01/06 07:40:34;;;;;;;11.80;6.93;;;;;;;;;;5055003;28;20028;-73
2021/01/06 07:43:09;;;;;;;12.93;7.80;;;;;;;;;;5054958;28;20032;-73
2021/01/06 07:45:41;;;;;;;17.73;9.43;;;;;;;;;;5053733;28;20021;-73
2021/01/06 07:48:16;;;;;;;17.35;9.25;;;;;;;;;;5054856;28;20036;-73
2021/01/06 07:51:06;;;;;;;16.88;9.23;;;;;;;;;;5053415;28;20025;-73
2021/01/06 07:53:38;;;;;;;16.60;8.30;;;;;;;;;;5053322;28;20553;-73
2021/01/06 07:56:06;;;;;;;16.00;8.32;;;;;;;;;;5054724;28;20036;-73
2021/01/06 07:58:55;;;;;;;16.00;8.77;;;;;;;;;;5054407;28;20040;-74
2021/01/06 08:01:35;;;;;;;17.13;8.60;;;;;;;;;;5048046;28;20036;-73
2021/01/06 08:04:06;;;;;;;12.10;7.50;;;;;;;;;;5054654;28;20143;-76
2021/01/06 08:06:41;;;;;;;14.70;8.48;;;;;;;;;;5054546;28;20112;-74
2021/01/06 08:09:07;;;;;;;14.57;9.02;;;;;;;;;;5054530;28;20553;-75
2021/01/06 08:11:43;;;;;;;15.85;9.00;;;;;;;;;;5053196;28;20021;-73
2021/01/06 08:14:18;;;;;;;11.25;6.88;;;;;;;;;;5053114;28;20063;-76
2021/01/06 08:16:44;;;;;;;11.82;7.00;;;;;;;;;;5054248;28;20028;-74
2021/01/06 08:19:16;;;;;;;11.30;6.85;;;;;;;;;;5052814;28;20396;-76
2021/01/06 08:22:00;;;;;;;11.07;7.05;;;;;;;;;;5052593;28;20029;-75
2021/01/06 08:24:29;;;;;;;13.18;7.35;;;;;;;;;;5052839;28;20029;-73
2021/01/06 08:26:59;;;;;;;12.50;7.43;;;;;;;;;;5054072;28;20096;-73
2021/01/06 08:29:29;;;;;;;12.77;7.28;;;;;;;;;;5054147;28;20025;-76
2021/01/06 08:32:00;;;;;;;12.95;7.53;;;;;;;;;;5054101;28;20155;-76
2021/01/06 08:34:29;;;;;;;13.35;7.05;;;;;;;;;;5051518;28;20020;-74
2021/01/06 08:37:03;;;;;;;12.52;7.05;;;;;;;;;;5053930;28;20049;-75
2021/01/06 08:39:30;;;;;;;10.98;6.65;;;;;;;;;;5053922;28;20036;-75
2021/01/06 08:42:06;;;;;;;13.85;7.60;;;;;;;;;;5053978;28;20021;-74
2021/01/06 08:44:45;;;;;;;12.75;7.50;;;;;;;;;;5053860;28;20021;-73
2021/01/06 08:47:13;;;;;;;13.25;6.72;;;;;;;;;;5051811;28;20025;-73
2021/01/06 08:49:48;;;;;;;10.48;6.50;;;;;;;;;;5052501;28;20025;-74
2021/01/06 08:52:17;;;;;;;12.68;6.82;;;;;;;;;;5053819;28;20488;-73
2021/01/06 08:55:01;;;;;;;13.30;7.13;;;;;;;;;;5052386;28;20029;-73
2021/01/06 08:57:29;;;;;;;14.05;7.13;;;;;;;;;;5052323;28;20021;-76
2021/01/06 08:59:56;;;;;;;12.73;7.07;;;;;;;;;;5053567;28;20024;-75
2021/01/06 09:02:35;;;;;;;12.80;7.32;;;;;;;;;;5052752;28;20029;-73
2021/01/06 09:05:01;;;;;;;11.73;7.10;;;;;;;;;;5052707;28;20476;-74
2021/01/06 09:07:30;;;;;;;12.43;8.32;;;;;;;;;;5052920;28;20087;-73
2021/01/06 09:09:59;;;;;;;11.07;7.10;;;;;;;;;;5053031;28;20563;-75
2021/01/06 09:12:36;;;;;;;13.23;7.68;;;;;;;;;;5048284;28;20036;-74
2021/01/06 09:15:03;;;;;;;12.15;7.40;;;;;;;;;;5042660;28;20033;-73
2021/01/06 09:17:44;;;;;;;15.57;7.47;;;;;;;;;;5051647;28;20106;-73
2021/01/06 09:20:14;;;;;;;14.15;7.70;;;;;;;;;;5034910;28;20025;-73
2021/01/06 09:22:41;;;;;;;17.17;8.93;;;;;;;;;;5031734;28;20025;-73
2021/01/06 09:25:07;;;;;;;14.55;8.40;;;;;;;;;;5031834;28;20022;-72
2021/01/06 09:27:38;;;;;;;21.05;9.95;;;;;;;;;;5033185;28;20080;-73
2021/01/06 09:30:10;;;;;;;15.70;9.80;;;;;;;;;;5033127;28;20113;-74
2021/01/06 09:32:38;;;;;;;17.63;9.73;;;;;;;;;;5031857;28;20492;-72
2021/01/06 09:35:07;;;;;;;13.23;7.50;;;;;;;;;;5033067;28;20021;-73
2021/01/06 09:37:34;;;;;;;12.38;7.68;;;;;;;;;;5031549;28;20048;-72
2021/01/06 09:40:12;;;;;;;12.80;6.97;;;;;;;;;;5032842;28;20025;-73
2021/01/06 09:42:39;;;;;;;12.13;6.65;;;;;;;;;;5050415;28;20024;-72
2021/01/06 09:45:07;;;;;;;13.20;7.28;;;;;;;;;;5050125;28;20372;-73
2021/01/06 09:47:35;;;;;;;14.45;7.30;;;;;;;;;;5047645;28;20074;-73
2021/01/06 09:50:03;;;;;;;13.10;6.32;;;;;;;;;;5051985;28;20029;-75
2021/01/06 09:52:32;;;;;;;15.23;7.43;;;;;;;;;;5050836;28;20027;-75
2021/01/06 09:54:59;;;;;;;13.52;6.32;;;;;;;;;;5052370;28;20079;-75
2021/01/06 09:57:26;;;;;;;13.32;6.88;;;;;;;;;;5052367;28;20092;-75
2021/01/06 09:59:54;;;;;;;12.80;7.38;;;;;;;;;;5052206;28;20028;-71
2021/01/06 10:02:28;;;;;;;10.27;6.00;;;;;;;;;;5037278;28;20421;-75
2021/01/06 10:04:57;;;;;;;11.80;6.88;;;;;;;;;;5032459;28;20026;-74
2021/01/06 10:07:33;;;;;;;10.95;6.50;;;;;;;;;;5030908;28;20013;-75
2021/01/06 10:10:02;;;;;;;12.02;6.78;;;;;;;;;;5030919;28;20033;-73
2021/01/06 10:12:51;;;;;;;14.32;7.10;;;;;;;;;;5030798;28;20044;-73
2021/01/06 10:15:33;;;;;;;10.38;6.05;;;;;;;;;;5029978;28;20099;-75
2021/01/06 10:18:02;;;;;;;10.95;6.47;;;;;;;;;;5048787;28;20029;-74
2021/01/06 10:20:34;;;;;;;11.13;6.82;;;;;;;;;;5051601;28;20484;-73
2021/01/06 10:23:20;;;;;;;10.23;6.25;;;;;;;;;;5051486;28;20440;-74
2021/01/06 10:25:59;;;;;;;14.07;7.40;;;;;;;;;;5030108;28;20032;-74
2021/01/06 10:28:28;;;;;;;10.32;6.07;;;;;;;;;;5050555;28;20632;-73
2021/01/06 10:31:15;;;;;;;12.07;6.78;;;;;;;;;;5051631;28;20020;-74
2021/01/06 10:34:01;;;;;;;15.15;7.35;;;;;;;;;;5031797;28;20076;-72
2021/01/06 10:36:27;;;;;;;9.82;6.43;;;;;;;;;;5030564;28;20034;-73
2021/01/06 10:38:54;;;;;;;11.32;6.90;;;;;;;;;;5051762;28;20106;-72
2021/01/06 10:41:20;;;;;;;9.40;5.72;;;;;;;;;;5050056;28;20024;-73
2021/01/06 10:43:47;;;;;;;11.70;7.60;;;;;;;;;;5051186;28;20132;-72
2021/01/06 10:46:32;;;;;;;12.73;6.53;;;;;;;;;;5051507;28;20048;-74
2021/01/06 10:48:58;;;;;;;14.20;7.65;;;;;;;;;;5050801;28;20033;-73
2021/01/06 10:51:43;;;;;;;12.93;7.80;;;;;;;;;;5050159;28;20070;-78
2021/01/06 10:54:09;;;;;;;11.07;6.72;;;;;;;;;;5050742;28;20545;-73
2021/01/06 10:56:35;;;;;;;11.93;7.18;;;;;;;;;;5048309;28;20052;-74
2021/01/06 10:59:05;;;;;;;14.95;7.72;;;;;;;;;;5048082;28;20036;-74
2021/01/06 11:01:32;;;;;;;12.02;7.97;;;;;;;;;;5045593;28;20040;-77
2021/01/06 11:04:19;;;;;;;11.60;7.55;;;;;;;;;;5050730;28;20388;-73
2021/01/06 11:06:47;;;;;;;11.82;7.15;;;;;;;;;;5050023;28;20017;-73
2021/01/06 11:09:17;;;;;;;13.10;7.93;;;;;;;;;;5049386;28;20065;-75
2021/01/06 11:12:01;;;;;;;13.68;7.32;;;;;;;;;;5047564;28;20029;-72
2021/01/06 11:14:46;;;;;;;12.25;7.22;;;;;;;;;;5051178;28;20048;-74
2021/01/06 11:17:18;;;;;;;15.40;7.97;;;;;;;;;;5049701;28;20039;-75
2021/01/06 11:19:44;;;;;;;13.65;7.68;;;;;;;;;;5049261;28;20044;-76
2021/01/06 11:22:19;;;;;;;10.82;6.88;;;;;;;;;;5050544;28;20017;-74
2021/01/06 11:24:50;;;;;;;13.05;7.30;;;;;;;;;;5048947;28;20029;-75
2021/01/06 11:27:32;;;;;;;14.98;7.68;;;;;;;;;;5050523;28;20039;-76
2021/01/06 11:30:01;;;;;;;11.50;6.38;;;;;;;;;;5049550;28;20074;-75
2021/01/06 11:32:29;;;;;;;11.77;8.18;;;;;;;;;;5049676;28;20025;-75
2021/01/06 11:35:09;;;;;;;17.48;8.30;;;;;;;;;;5050967;28;20021;-74
2021/01/06 11:37:37;;;;;;;13.32;7.60;;;;;;;;;;5050926;28;20144;-74
2021/01/06 11:40:06;;;;;;;14.68;7.97;;;;;;;;;;5051159;28;20095;-68
2021/01/06 11:42:45;;;;;;;19.60;9.60;;;;;;;;;;5049732;28;20025;-74
2021/01/06 11:45:13;;;;;;;14.00;9.07;;;;;;;;;;5050006;28;20040;-71
2021/01/06 11:48:02;;;;;;;14.32;8.35;;;;;;;;;;5049640;28;20481;-71
2021/01/06 11:50:37;;;;;;;13.27;8.63;;;;;;;;;;5049632;28;20025;-69
2021/01/06 11:53:17;;;;;;;14.15;9.07;;;;;;;;;;5050805;28;20025;-72
2021/01/06 11:55:49;;;;;;;16.77;8.98;;;;;;;;;;5050748;28;20021;-71
2021/01/06 11:58:29;;;;;;;16.05;9.88;;;;;;;;;;5038155;28;20042;-72
2021/01/06 12:01:13;;;;;;;16.63;10.00;;;;;;;;;;5030783;28;20025;-68
2021/01/06 12:03:58;;;;;;;20.10;11.27;;;;;;;;;;5032072;28;20028;-72
2021/01/06 12:06:34;;;;;;;15.73;10.55;;;;;;;;;;5029640;28;20032;-75
2021/01/06 12:09:07;;;;;;;16.73;8.75;;;;;;;;;;5032018;28;20025;-72
2021/01/06 12:11:33;;;;;;;;;;;;;;;;;;5034974;28;20051;-75
2021/01/06 12:14:11;;;;;;;15.85;10.18;;;;;;;;;;5049669;28;19911;-70
2021/01/06 12:16:50;;;;;;;16.90;11.40;;;;;;;;;;5034508;28;20030;-72
2021/01/06 12:19:19;;;;;;;16.38;10.40;;;;;;;;;;5049457;28;20055;-70
2021/01/06 12:21:51;;;;;;;14.48;9.40;;;;;;;;;;5034352;28;20028;-70
2021/01/06 12:24:22;;;;;;;15.67;10.60;;;;;;;;;;5034458;28;20022;-71
2021/01/06 12:26:49;;;;;;;16.17;11.17;;;;;;;;;;5034134;28;20033;-71
2021/01/06 12:29:17;;;;;;;16.33;10.80;;;;;;;;;;5049429;28;20025;-70
2021/01/06 12:31:55;;;;;;;18.20;11.13;;;;;;;;;;5034193;28;20030;-70
2021/01/06 12:34:29;;;;;;;17.15;12.05;;;;;;;;;;5034082;28;20029;-70
2021/01/06 12:36:58;;;;;;;16.52;11.30;;;;;;;;;;5033848;28;20049;-72
2021/01/06 12:39:30;;;;;;;17.55;11.88;;;;;;;;;;5049297;28;20427;-72
2021/01/06 12:42:32;;;;;;;17.50;11.15;;;;;;;;;;5034106;28;20100;-71
2021/01/06 12:45:03;;;;;;;17.08;10.68;;;;;;;;;;5011234;28;20543;-70
2021/01/06 12:47:39;;;;;;;17.30;11.20;;;;;;;;;;5030318;28;20057;-70
2021/01/06 12:50:08;;;;;;;18.48;12.07;;;;;;;;;;5049120;28;20095;-74
2021/01/06 12:52:34;;;;;;;15.70;10.70;;;;;;;;;;5033765;28;20112;-72
2021/01/06 12:55:19;;;;;;;17.30;11.90;;;;;;;;;;5033613;28;20588;-73
2021/01/06 12:57:50;;;;;;;17.45;10.80;;;;;;;;;;5033704;28;20057;-72
2021/01/06 13:00:40;;;;;;;15.38;11.05;;;;;;;;;;5033615;28;20506;-71
2021/01/06 13:03:15;;;;;;;17.08;10.98;;;;;;;;;;5030432;28;20033;-71
2021/01/06 13:05:41;;;;;;;19.17;12.07;;;;;;;;;;5033520;28;20083;-75
2021/01/06 13:08:21;;;;;;;16.38;11.35;;;;;;;;;;5044987;28;20082;-72
2021/01/06 13:10:48;;;;;;;15.35;10.75;;;;;;;;;;5053075;28;20028;-71
2021/01/06 13:13:23;;;;;;;14.93;10.55;;;;;;;;;;5053238;28;20060;-71
2021/01/06 13:15:58;;;;;;;18.33;10.88;;;;;;;;;;5053194;28;20014;-70
2021/01/06 13:18:56;;;;;;;16.75;11.38;;;;;;;;;;5052712;28;20112;-72
2021/01/06 13:21:31;;;;;;;18.00;11.30;;;;;;;;;;5028405;28;20043;-72
2021/01/06 13:23:57;;;;;;;15.02;9.77;;;;;;;;;;5053112;28;20021;-71
2021/01/06 13:26:26;;;;;;;15.45;10.50;;;;;;;;;;5051068;28;20017;-73
2021/01/06 13:29:08;;;;;;;17.25;11.80;;;;;;;;;;5051692;28;20226;-74
2021/01/06 13:31:34;;;;;;;15.93;11.35;;;;;;;;;;5051695;28;20053;-72
2021/01/06 13:34:11;;;;;;;18.75;11.55;;;;;;;;;;5053006;28;20021;-74
2021/01/06 13:36:40;;;;;;;19.05;11.40;;;;;;;;;;5052829;28;20056;-74
2021/01/06 13:39:19;;;;;;;18.23;11.18;;;;;;;;;;5051344;28;20039;-74
2021/01/06 13:41:46;;;;;;;17.98;11.82;;;;;;;;;;5051338;28;20023;-74
2021/01/06 13:44:28;;;;;;;17.77;12.00;;;;;;;;;;5052752;28;20025;-72
2021/01/06 13:46:54;;;;;;;17.98;11.60;;;;;;;;;;5051620;28;20456;-72
2021/01/06 13:49:34;;;;;;;14.52;9.77;;;;;;;;;;5051182;28;20111;-71
2021/01/06 13:52:05;;;;;;;16.67;10.73;;;;;;;;;;5052636;28;20017;-71
2021/01/06 13:54:52;;;;;;;14.02;8.98;;;;;;;;;;5051153;28;20021;-70
2021/01/06 13:57:21;;;;;;;15.20;10.57;;;;;;;;;;5052365;28;20115;-67
2021/01/06 13:59:53;;;;;;;18.25;12.30;;;;;;;;;;5052471;28;20033;-70
2021/01/06 14:02:38;;;;;;;15.43;10.23;;;;;;;;;;5051044;28;20055;-73
2021/01/06 14:05:07;;;;;;;15.02;10.38;;;;;;;;;;5050988;28;20021;-69
2021/01/06 14:07:42;;;;;;;16.35;10.23;;;;;;;;;;5045051;28;20021;-72
2021/01/06 14:10:11;;;;;;;15.43;9.45;;;;;;;;;;5032466;28;20032;-73
2021/01/06 14:12:40;;;;;;;13.02;8.98;;;;;;;;;;5032317;28;20405;-71
2021/01/06 14:15:17;;;;;;;14.90;8.82;;;;;;;;;;5032253;28;20040;-73
2021/01/06 14:18:02;;;;;;;14.48;9.00;;;;;;;;;;5048804;28;20032;-75
2021/01/06 14:20:28;;;;;;;13.98;9.07;;;;;;;;;;5052026;28;20384;-71
2021/01/06 14:23:13;;;;;;;12.23;8.60;;;;;;;;;;5051777;28;20017;-71
2021/01/06 14:25:39;;;;;;;13.38;8.55;;;;;;;;;;5050740;28;20033;-72
2021/01/06 14:28:08;;;;;;;14.52;8.40;;;;;;;;;;5051936;28;20017;-70
2021/01/06 14:30:35;;;;;;;12.40;8.13;;;;;;;;;;5051531;28;20021;-72
2021/01/06 14:33:05;;;;;;;15.95;8.55;;;;;;;;;;5051071;28;20496;-75
2021/01/06 14:35:57;;;;;;;13.38;8.43;;;;;;;;;;5050481;28;20729;-72
2021/01/06 14:38:26;;;;;;;13.70;8.70;;;;;;;;;;5049147;28;20063;-73
2021/01/06 14:41:04;;;;;;;13.60;8.95;;;;;;;;;;5051672;28;20021;-71
2021/01/06 14:43:43;;;;;;;14.90;8.43;;;;;;;;;;5050258;28;20251;-72
2021/01/06 14:46:26;;;;;;;13.68;8.45;;;;;;;;;;5051481;28;20013;-72
2021/01/06 14:48:53;;;;;;;13.80;8.45;;;;;;;;;;5051525;28;20044;-75
2021/01/06 14:51:42;;;;;;;12.00;7.90;;;;;;;;;;5051631;28;20028;-75
2021/01/06 14:54:20;;;;;;;15.07;8.05;;;;;;;;;;5051247;28;20082;-70
2021/01/06 14:56:58;;;;;;;13.30;7.82;;;;;;;;;;5050189;28;20070;-71